sensor_id;sensor_type;location;lat;lon;timestamp;pressure;altitude;pressure_sealevel;temperature;humidity
75549;BME280;64133;56.002;37.208;2023-05-29T00:04:41;99314.56;;;8.63;68.99
75549;BME280;64133;56.002;37.208;2023-05-29T00:09:46;99322.99;;;8.50;69.27
75549;BME280;64133;56.002;37.208;2023-05-29T00:14:50;99322.36;;;8.41;69.62
75549;BME280;64133;56.002;37.208;2023-05-29T00:19:55;99312.74;;;8.34;69.80
75549;BME280;64133;56.002;37.208;2023-05-29T00:24:59;99238.39;;;7.93;70.04
75549;BME280;64133;56.002;37.208;2023-05-29T00:30:06;99320.66;;;8.40;69.95
75549;BME280;64133;56.002;37.208;2023-05-29T00:35:11;99319.18;;;8.36;69.97
75549;BME280;64133;56.002;37.208;2023-05-29T00:40:15;99322.77;;;8.35;70.04
75549;BME280;64133;56.002;37.208;2023-05-29T00:45:20;99324.43;;;8.36;69.92
75549;BME280;64133;56.002;37.208;2023-05-29T00:50:25;99329.80;;;8.34;69.89
75549;BME280;64133;56.002;37.208;2023-05-29T00:55:29;99328.97;;;8.34;70.06
75549;BME280;64133;56.002;37.208;2023-05-29T01:00:34;99333.56;;;8.37;70.14
75549;BME280;64133;56.002;37.208;2023-05-29T01:05:39;99332.59;;;8.38;70.02
75549;BME280;64133;56.002;37.208;2023-05-29T01:10:43;99329.23;;;8.36;69.89
75549;BME280;64133;56.002;37.208;2023-05-29T01:15:49;99335.70;;;8.38;69.98
75549;BME280;64133;56.002;37.208;2023-05-29T01:20:57;99333.00;;;8.45;69.76
75549;BME280;64133;56.002;37.208;2023-05-29T01:26:07;99340.05;;;8.50;69.25
75549;BME280;64133;56.002;37.208;2023-05-29T01:31:09;99342.28;;;8.43;69.26
75549;BME280;64133;56.002;37.208;2023-05-29T01:36:14;99346.02;;;8.52;69.24
75549;BME280;64133;56.002;37.208;2023-05-29T01:41:19;99341.39;;;8.61;68.93
75549;BME280;64133;56.002;37.208;2023-05-29T01:46:23;99345.83;;;8.66;68.68
75549;BME280;64133;56.002;37.208;2023-05-29T01:51:29;99345.66;;;8.80;68.26
75549;BME280;64133;56.002;37.208;2023-05-29T01:56:33;99346.15;;;8.91;68.00
75549;BME280;64133;56.002;37.208;2023-05-29T02:01:39;99350.73;;;9.06;67.57
75549;BME280;64133;56.002;37.208;2023-05-29T02:06:44;99362.92;;;9.07;67.34
75549;BME280;64133;56.002;37.208;2023-05-29T02:11:48;99357.44;;;9.10;67.31
75549;BME280;64133;56.002;37.208;2023-05-29T02:16:53;99361.73;;;9.22;67.08
75549;BME280;64133;56.002;37.208;2023-05-29T02:21:57;99362.73;;;9.33;66.89
75549;BME280;64133;56.002;37.208;2023-05-29T02:27:02;99358.90;;;9.48;66.50
75549;BME280;64133;56.002;37.208;2023-05-29T02:32:07;99362.38;;;9.65;66.10
75549;BME280;64133;56.002;37.208;2023-05-29T02:37:12;99369.06;;;9.86;65.53
75549;BME280;64133;56.002;37.208;2023-05-29T02:42:17;99369.75;;;10.05;64.85
75549;BME280;64133;56.002;37.208;2023-05-29T02:47:21;99367.44;;;10.23;64.22
75549;BME280;64133;56.002;37.208;2023-05-29T02:52:26;99361.57;;;10.42;63.77
75549;BME280;64133;56.002;37.208;2023-05-29T02:57:30;99371.91;;;10.60;63.37
75549;BME280;64133;56.002;37.208;2023-05-29T03:02:35;99358.25;;;10.87;62.60
75549;BME280;64133;56.002;37.208;2023-05-29T03:07:40;99365.38;;;11.02;62.16
75549;BME280;64133;56.002;37.208;2023-05-29T03:12:45;99372.95;;;11.16;61.73
75549;BME280;64133;56.002;37.208;2023-05-29T03:17:49;99375.45;;;11.39;61.43
75549;BME280;64133;56.002;37.208;2023-05-29T03:22:54;99372.78;;;11.60;60.82
75549;BME280;64133;56.002;37.208;2023-05-29T03:27:59;99382.55;;;11.84;60.04
75549;BME280;64133;56.002;37.208;2023-05-29T03:33:06;99391.73;;;12.05;59.43
75549;BME280;64133;56.002;37.208;2023-05-29T03:38:14;99392.17;;;13.32;57.81
75549;BME280;64133;56.002;37.208;2023-05-29T03:43:28;99393.88;;;16.69;51.90
75549;BME280;64133;56.002;37.208;2023-05-29T03:48:32;99386.16;;;27.77;35.29
75549;BME280;64133;56.002;37.208;2023-05-29T03:53:37;99398.51;;;32.60;27.66
75549;BME280;64133;56.002;37.208;2023-05-29T03:58:42;99406.94;;;34.12;24.31
75549;BME280;64133;56.002;37.208;2023-05-29T04:03:46;99409.89;;;36.28;21.87
75549;BME280;64133;56.002;37.208;2023-05-29T04:08:51;99413.97;;;38.29;19.18
75549;BME280;64133;56.002;37.208;2023-05-29T04:13:55;99414.66;;;38.48;18.21
75549;BME280;64133;56.002;37.208;2023-05-29T04:19:00;99421.56;;;39.32;16.97
75549;BME280;64133;56.002;37.208;2023-05-29T04:24:06;99434.83;;;39.41;16.27
75549;BME280;64133;56.002;37.208;2023-05-29T04:29:11;99423.58;;;39.72;15.26
75549;BME280;64133;56.002;37.208;2023-05-29T04:34:15;99428.45;;;41.06;13.89
75549;BME280;64133;56.002;37.208;2023-05-29T04:39:20;99430.69;;;41.22;13.20
75549;BME280;64133;56.002;37.208;2023-05-29T04:44:27;99437.03;;;41.22;12.59
75549;BME280;64133;56.002;37.208;2023-05-29T04:49:32;99434.50;;;42.55;11.43
75549;BME280;64133;56.002;37.208;2023-05-29T04:54:37;99427.78;;;42.50;10.97
75549;BME280;64133;56.002;37.208;2023-05-29T04:59:42;99435.86;;;43.90;10.01
75549;BME280;64133;56.002;37.208;2023-05-29T05:04:46;99435.92;;;43.63;9.79
75549;BME280;64133;56.002;37.208;2023-05-29T05:09:51;99439.31;;;43.87;9.17
75549;BME280;64133;56.002;37.208;2023-05-29T05:14:55;99448.55;;;45.11;8.42
75549;BME280;64133;56.002;37.208;2023-05-29T05:20:00;99447.76;;;45.27;8.03
75549;BME280;64133;56.002;37.208;2023-05-29T05:25:06;99445.55;;;44.52;8.00
75549;BME280;64133;56.002;37.208;2023-05-29T05:30:13;99450.06;;;45.31;7.38
75549;BME280;64133;56.002;37.208;2023-05-29T05:35:17;99442.41;;;44.59;7.21
75549;BME280;64133;56.002;37.208;2023-05-29T05:40:22;99444.30;;;47.24;5.94
75549;BME280;64133;56.002;37.208;2023-05-29T05:45:27;99443.75;;;47.28;5.71
75549;BME280;64133;56.002;37.208;2023-05-29T05:50:31;99453.27;;;47.04;5.30
75549;BME280;64133;56.002;37.208;2023-05-29T05:55:36;99452.07;;;48.13;4.66
75549;BME280;64133;56.002;37.208;2023-05-29T06:00:41;99451.47;;;49.14;4.27
75549;BME280;64133;56.002;37.208;2023-05-29T06:05:46;99438.48;;;48.12;4.43
75549;BME280;64133;56.002;37.208;2023-05-29T06:10:51;99446.67;;;49.75;3.69
75549;BME280;64133;56.002;37.208;2023-05-29T06:15:55;99448.33;;;49.56;3.87
75549;BME280;64133;56.002;37.208;2023-05-29T06:21:00;99451.95;;;48.19;3.91
75549;BME280;64133;56.002;37.208;2023-05-29T06:26:05;99446.73;;;49.04;3.60
75549;BME280;64133;56.002;37.208;2023-05-29T06:31:08;99443.05;;;47.87;3.78
75549;BME280;64133;56.002;37.208;2023-05-29T06:36:12;99447.56;;;49.63;2.37
75549;BME280;64133;56.002;37.208;2023-05-29T06:41:17;99436.98;;;46.42;4.06
75549;BME280;64133;56.002;37.208;2023-05-29T06:46:22;99448.70;;;47.35;3.73
75549;BME280;64133;56.002;37.208;2023-05-29T06:51:27;99461.70;;;48.55;3.10
75549;BME280;64133;56.002;37.208;2023-05-29T06:56:31;99454.54;;;48.88;3.06
75549;BME280;64133;56.002;37.208;2023-05-29T07:07:03;99459.22;;;47.65;3.07
75549;BME280;64133;56.002;37.208;2023-05-29T07:12:08;99456.73;;;46.27;3.86
75549;BME280;64133;56.002;37.208;2023-05-29T07:17:13;99459.11;;;46.80;3.61
75549;BME280;64133;56.002;37.208;2023-05-29T07:22:17;99453.41;;;46.38;3.78
75549;BME280;64133;56.002;37.208;2023-05-29T07:27:21;99447.30;;;47.25;3.30
75549;BME280;64133;56.002;37.208;2023-05-29T07:32:25;99441.81;;;47.09;3.04
75549;BME280;64133;56.002;37.208;2023-05-29T07:37:30;99444.37;;;45.11;4.08
75549;BME280;64133;56.002;37.208;2023-05-29T07:42:35;99435.12;;;45.29;4.02
75549;BME280;64133;56.002;37.208;2023-05-29T07:47:38;99433.91;;;45.14;4.06
75549;BME280;64133;56.002;37.208;2023-05-29T07:52:44;99429.36;;;46.94;3.28
75549;BME280;64133;56.002;37.208;2023-05-29T07:57:48;99432.64;;;48.50;2.84
75549;BME280;64133;56.002;37.208;2023-05-29T08:02:52;99429.70;;;45.80;3.95
75549;BME280;64133;56.002;37.208;2023-05-29T08:07:55;99430.52;;;45.21;4.23
75549;BME280;64133;56.002;37.208;2023-05-29T08:12:58;99434.67;;;42.29;5.54
75549;BME280;64133;56.002;37.208;2023-05-29T08:18:01;99431.22;;;46.25;3.58
75549;BME280;64133;56.002;37.208;2023-05-29T08:23:06;99439.19;;;44.63;4.41
75549;BME280;64133;56.002;37.208;2023-05-29T08:28:10;99429.67;;;41.52;5.08
75549;BME280;64133;56.002;37.208;2023-05-29T08:33:15;99427.86;;;42.18;4.47
75549;BME280;64133;56.002;37.208;2023-05-29T08:38:20;99426.06;;;34.76;8.38
75549;BME280;64133;56.002;37.208;2023-05-29T08:43:25;99426.20;;;30.58;10.96
75549;BME280;64133;56.002;37.208;2023-05-29T08:48:30;99422.23;;;28.99;12.28
75549;BME280;64133;56.002;37.208;2023-05-29T08:53:34;99426.33;;;28.18;12.64
75549;BME280;64133;56.002;37.208;2023-05-29T08:58:39;99426.48;;;27.20;13.56
75549;BME280;64133;56.002;37.208;2023-05-29T09:03:43;99412.42;;;26.30;14.39
75549;BME280;64133;56.002;37.208;2023-05-29T09:08:48;99418.58;;;25.83;14.83
75549;BME280;64133;56.002;37.208;2023-05-29T09:19:07;99403.27;;;25.17;16.26
75549;BME280;64133;56.002;37.208;2023-05-29T09:24:13;99395.94;;;24.93;15.87
75549;BME280;64133;56.002;37.208;2023-05-29T09:29:16;99396.95;;;25.14;16.05
75549;BME280;64133;56.002;37.208;2023-05-29T09:34:23;99396.20;;;24.85;15.88
75549;BME280;64133;56.002;37.208;2023-05-29T09:39:29;99388.30;;;25.21;16.17
75549;BME280;64133;56.002;37.208;2023-05-29T09:44:34;99388.23;;;25.28;16.48
75549;BME280;64133;56.002;37.208;2023-05-29T09:49:42;99379.61;;;25.28;16.65
75549;BME280;64133;56.002;37.208;2023-05-29T09:54:47;99370.50;;;25.29;16.76
75549;BME280;64133;56.002;37.208;2023-05-29T09:59:52;99359.50;;;25.15;17.25
75549;BME280;64133;56.002;37.208;2023-05-29T10:04:56;99369.28;;;24.94;17.65
75549;BME280;64133;56.002;37.208;2023-05-29T10:10:02;99372.00;;;24.78;17.87
75549;BME280;64133;56.002;37.208;2023-05-29T10:15:09;99360.86;;;24.29;18.00
75549;BME280;64133;56.002;37.208;2023-05-29T10:20:26;99351.41;;;24.07;18.42
75549;BME280;64133;56.002;37.208;2023-05-29T10:25:32;99355.77;;;24.30;17.84
75549;BME280;64133;56.002;37.208;2023-05-29T10:30:38;99355.48;;;24.52;17.48
75549;BME280;64133;56.002;37.208;2023-05-29T10:35:44;99341.92;;;24.20;17.33
75549;BME280;64133;56.002;37.208;2023-05-29T10:40:48;99353.67;;;24.32;17.27
75549;BME280;64133;56.002;37.208;2023-05-29T10:45:52;99350.87;;;23.85;17.55
75549;BME280;64133;56.002;37.208;2023-05-29T10:50:57;99348.02;;;24.02;17.28
75549;BME280;64133;56.002;37.208;2023-05-29T10:56:02;99338.94;;;23.97;17.33
75549;BME280;64133;56.002;37.208;2023-05-29T11:01:06;99327.06;;;23.89;17.48
75549;BME280;64133;56.002;37.208;2023-05-29T11:06:19;99333.49;;;24.10;17.69
75549;BME280;64133;56.002;37.208;2023-05-29T11:11:32;99328.28;;;23.93;17.84
75549;BME280;64133;56.002;37.208;2023-05-29T11:16:40;99326.66;;;23.85;18.26
75549;BME280;64133;56.002;37.208;2023-05-29T11:21:53;99326.80;;;23.74;18.72
75549;BME280;64133;56.002;37.208;2023-05-29T11:26:55;99314.70;;;23.74;18.52
75549;BME280;64133;56.002;37.208;2023-05-29T11:32:01;99319.35;;;23.01;19.31
75549;BME280;64133;56.002;37.208;2023-05-29T11:37:05;99305.34;;;23.48;19.22
75549;BME280;64133;56.002;37.208;2023-05-29T11:42:11;99311.95;;;23.52;19.53
75549;BME280;64133;56.002;37.208;2023-05-29T11:47:14;99302.72;;;23.57;19.90
75549;BME280;64133;56.002;37.208;2023-05-29T11:52:19;99307.92;;;23.88;19.27
75549;BME280;64133;56.002;37.208;2023-05-29T11:57:24;99298.91;;;23.91;19.55
75549;BME280;64133;56.002;37.208;2023-05-29T12:02:30;99295.77;;;23.94;19.29
75549;BME280;64133;56.002;37.208;2023-05-29T12:12:51;99279.44;;;23.67;20.04
75549;BME280;64133;56.002;37.208;2023-05-29T12:17:55;99280.75;;;23.24;20.26
75549;BME280;64133;56.002;37.208;2023-05-29T12:23:01;99271.76;;;23.28;20.27
75549;BME280;64133;56.002;37.208;2023-05-29T12:28:06;99274.36;;;23.19;20.64
75549;BME280;64133;56.002;37.208;2023-05-29T12:33:16;99264.73;;;23.27;20.90
75549;BME280;64133;56.002;37.208;2023-05-29T12:38:18;99271.39;;;22.98;20.68
75549;BME280;64133;56.002;37.208;2023-05-29T12:43:20;99265.61;;;23.01;21.17
75549;BME280;64133;56.002;37.208;2023-05-29T12:48:28;99253.11;;;23.04;21.11
75549;BME280;64133;56.002;37.208;2023-05-29T12:53:32;99255.36;;;23.14;21.17
75549;BME280;64133;56.002;37.208;2023-05-29T12:58:37;99233.77;;;23.04;21.04
75549;BME280;64133;56.002;37.208;2023-05-29T13:03:42;99250.20;;;22.86;21.29
75549;BME280;64133;56.002;37.208;2023-05-29T13:08:46;99250.31;;;22.81;20.95
75549;BME280;64133;56.002;37.208;2023-05-29T13:13:51;99256.39;;;22.53;20.90
75549;BME280;64133;56.002;37.208;2023-05-29T13:18:56;99256.48;;;22.05;21.17
75549;BME280;64133;56.002;37.208;2023-05-29T13:24:00;99261.09;;;22.18;21.16
75549;BME280;64133;56.002;37.208;2023-05-29T13:29:05;99255.72;;;22.24;21.19
75549;BME280;64133;56.002;37.208;2023-05-29T13:34:13;99252.98;;;22.48;21.28
75549;BME280;64133;56.002;37.208;2023-05-29T13:39:18;99252.42;;;22.29;21.60
75549;BME280;64133;56.002;37.208;2023-05-29T13:44:22;99225.03;;;22.03;21.77
75549;BME280;64133;56.002;37.208;2023-05-29T13:49:27;99247.01;;;22.09;21.79
75549;BME280;64133;56.002;37.208;2023-05-29T13:54:32;99244.94;;;22.04;21.98
75549;BME280;64133;56.002;37.208;2023-05-29T13:59:38;99247.37;;;22.23;21.99
75549;BME280;64133;56.002;37.208;2023-05-29T14:04:42;99242.22;;;21.98;21.91
75549;BME280;64133;56.002;37.208;2023-05-29T14:09:47;99237.89;;;21.97;22.15
75549;BME280;64133;56.002;37.208;2023-05-29T14:14:52;99239.45;;;21.95;22.10
75549;BME280;64133;56.002;37.208;2023-05-29T14:19:56;99246.03;;;21.93;22.06
75549;BME280;64133;56.002;37.208;2023-05-29T14:25:01;99246.67;;;21.95;22.58
75549;BME280;64133;56.002;37.208;2023-05-29T14:30:08;99243.90;;;22.05;22.54
75549;BME280;64133;56.002;37.208;2023-05-29T14:35:12;99246.67;;;22.01;22.73
75549;BME280;64133;56.002;37.208;2023-05-29T14:40:17;99244.17;;;21.93;22.78
75549;BME280;64133;56.002;37.208;2023-05-29T14:45:22;99250.92;;;21.76;23.18
75549;BME280;64133;56.002;37.208;2023-05-29T14:50:27;99246.94;;;21.82;22.94
75549;BME280;64133;56.002;37.208;2023-05-29T14:55:31;99246.28;;;21.74;22.94
75549;BME280;64133;56.002;37.208;2023-05-29T15:00:36;99254.63;;;21.68;22.95
75549;BME280;64133;56.002;37.208;2023-05-29T15:05:41;99250.20;;;21.54;22.92
75549;BME280;64133;56.002;37.208;2023-05-29T15:10:46;99252.39;;;21.37;23.24
75549;BME280;64133;56.002;37.208;2023-05-29T15:15:50;99254.02;;;21.31;23.26
75549;BME280;64133;56.002;37.208;2023-05-29T15:20:55;99250.64;;;21.33;23.35
75549;BME280;64133;56.002;37.208;2023-05-29T15:26:00;99248.03;;;21.47;23.59
75549;BME280;64133;56.002;37.208;2023-05-29T15:31:05;99243.22;;;21.36;23.66
75549;BME280;64133;56.002;37.208;2023-05-29T15:36:10;99247.27;;;21.25;23.85
75549;BME280;64133;56.002;37.208;2023-05-29T15:41:15;99250.25;;;21.08;23.94
75549;BME280;64133;56.002;37.208;2023-05-29T15:46:19;99237.08;;;20.96;24.22
75549;BME280;64133;56.002;37.208;2023-05-29T15:51:24;99244.91;;;20.98;24.55
75549;BME280;64133;56.002;37.208;2023-05-29T15:56:29;99244.57;;;20.90;24.73
75549;BME280;64133;56.002;37.208;2023-05-29T16:01:33;99237.50;;;20.82;24.96
75549;BME280;64133;56.002;37.208;2023-05-29T16:06:38;99241.14;;;20.75;25.16
75549;BME280;64133;56.002;37.208;2023-05-29T16:11:43;99247.46;;;20.67;25.34
75549;BME280;64133;56.002;37.208;2023-05-29T16:16:48;99246.73;;;20.52;25.39
75549;BME280;64133;56.002;37.208;2023-05-29T16:21:52;99248.75;;;20.39;25.65
75549;BME280;64133;56.002;37.208;2023-05-29T16:26:57;99255.30;;;20.37;25.85
75549;BME280;64133;56.002;37.208;2023-05-29T16:32:01;99251.67;;;20.23;26.13
75549;BME280;64133;56.002;37.208;2023-05-29T16:37:06;99247.21;;;20.08;26.38
75549;BME280;64133;56.002;37.208;2023-05-29T16:42:12;99248.35;;;19.99;26.59
75549;BME280;64133;56.002;37.208;2023-05-29T16:47:17;99247.64;;;19.91;26.78
75549;BME280;64133;56.002;37.208;2023-05-29T16:52:21;99245.80;;;19.76;26.94
75549;BME280;64133;56.002;37.208;2023-05-29T16:57:26;99245.02;;;19.61;27.27
75549;BME280;64133;56.002;37.208;2023-05-29T17:02:30;99244.83;;;19.48;27.53
75549;BME280;64133;56.002;37.208;2023-05-29T17:07:35;99238.02;;;19.30;28.03
75549;BME280;64133;56.002;37.208;2023-05-29T17:12:40;99238.08;;;19.12;28.62
75549;BME280;64133;56.002;37.208;2023-05-29T17:17:46;99241.45;;;18.91;29.23
75549;BME280;64133;56.002;37.208;2023-05-29T17:22:51;99240.39;;;18.81;29.66
75549;BME280;64133;56.002;37.208;2023-05-29T17:27:55;99247.34;;;18.63;30.13
75549;BME280;64133;56.002;37.208;2023-05-29T17:33:00;99252.58;;;18.38;31.01
75549;BME280;64133;56.002;37.208;2023-05-29T17:38:05;99249.05;;;18.14;31.82
75549;BME280;64133;56.002;37.208;2023-05-29T17:43:10;99254.19;;;17.93;32.47
75549;BME280;64133;56.002;37.208;2023-05-29T17:48:15;99245.96;;;17.67;33.31
75549;BME280;64133;56.002;37.208;2023-05-29T17:53:19;99250.41;;;17.44;34.03
75549;BME280;64133;56.002;37.208;2023-05-29T17:58:25;99250.83;;;17.20;34.63
75549;BME280;64133;56.002;37.208;2023-05-29T18:03:29;99248.53;;;17.01;35.14
75549;BME280;64133;56.002;37.208;2023-05-29T18:08:34;99246.91;;;16.79;35.95
75549;BME280;64133;56.002;37.208;2023-05-29T18:13:39;99257.38;;;16.61;36.56
75549;BME280;64133;56.002;37.208;2023-05-29T18:18:44;99262.19;;;16.45;37.04
75549;BME280;64133;56.002;37.208;2023-05-29T18:23:49;99268.48;;;16.27;37.56
75549;BME280;64133;56.002;37.208;2023-05-29T18:28:53;99262.82;;;16.14;38.09
75549;BME280;64133;56.002;37.208;2023-05-29T18:33:58;99262.31;;;15.98;38.67
75549;BME280;64133;56.002;37.208;2023-05-29T18:39:03;99258.94;;;15.84;39.25
75549;BME280;64133;56.002;37.208;2023-05-29T18:44:08;99274.02;;;15.67;39.79
75549;BME280;64133;56.002;37.208;2023-05-29T18:49:28;99274.22;;;15.48;40.39
75549;BME280;64133;56.002;37.208;2023-05-29T18:54:28;99273.05;;;15.76;38.74
75549;BME280;64133;56.002;37.208;2023-05-29T18:59:33;99278.76;;;15.59;39.91
75549;BME280;64133;56.002;37.208;2023-05-29T19:04:37;99268.26;;;15.54;39.31
75549;BME280;64133;56.002;37.208;2023-05-29T19:09:42;99274.26;;;15.56;38.98
75549;BME280;64133;56.002;37.208;2023-05-29T19:14:47;99276.63;;;15.29;40.64
75549;BME280;64133;56.002;37.208;2023-05-29T19:19:51;99285.45;;;15.07;41.46
75549;BME280;64133;56.002;37.208;2023-05-29T19:24:56;99284.34;;;14.92;42.18
75549;BME280;64133;56.002;37.208;2023-05-29T19:30:01;99280.28;;;14.80;42.63
75549;BME280;64133;56.002;37.208;2023-05-29T19:35:07;99285.52;;;14.68;43.18
75549;BME280;64133;56.002;37.208;2023-05-29T19:40:12;99278.78;;;14.55;43.73
75549;BME280;64133;56.002;37.208;2023-05-29T19:45:17;99278.84;;;14.46;44.34
75549;BME280;64133;56.002;37.208;2023-05-29T19:50:22;99285.11;;;14.27;44.48
75549;BME280;64133;56.002;37.208;2023-05-29T19:55:27;99284.52;;;14.15;45.02
75549;BME280;64133;56.002;37.208;2023-05-29T20:00:31;99281.17;;;14.13;45.52
75549;BME280;64133;56.002;37.208;2023-05-29T20:05:36;99284.27;;;14.08;46.24
75549;BME280;64133;56.002;37.208;2023-05-29T20:10:41;99277.11;;;14.05;46.47
75549;BME280;64133;56.002;37.208;2023-05-29T20:15:45;99281.70;;;13.99;46.86
75549;BME280;64133;56.002;37.208;2023-05-29T20:20:50;99272.95;;;13.89;47.29
75549;BME280;64133;56.002;37.208;2023-05-29T20:25:55;99270.15;;;13.72;47.80
75549;BME280;64133;56.002;37.208;2023-05-29T20:31:00;99268.47;;;13.57;48.13
75549;BME280;64133;56.002;37.208;2023-05-29T20:36:05;99270.84;;;13.47;48.73
75549;BME280;64133;56.002;37.208;2023-05-29T20:41:10;99271.12;;;13.44;49.06
75549;BME280;64133;56.002;37.208;2023-05-29T20:46:15;99269.30;;;13.30;49.45
75549;BME280;64133;56.002;37.208;2023-05-29T20:51:19;99268.81;;;13.21;49.76
75549;BME280;64133;56.002;37.208;2023-05-29T20:56:24;99263.69;;;13.10;50.12
75549;BME280;64133;56.002;37.208;2023-05-29T21:01:29;99271.11;;;12.97;50.76
75549;BME280;64133;56.002;37.208;2023-05-29T21:06:33;99271.47;;;12.88;50.96
75549;BME280;64133;56.002;37.208;2023-05-29T21:11:41;99269.69;;;12.89;50.87
75549;BME280;64133;56.002;37.208;2023-05-29T21:16:46;99273.28;;;12.88;51.17
75549;BME280;64133;56.002;37.208;2023-05-29T21:21:51;99274.85;;;12.80;51.37
75549;BME280;64133;56.002;37.208;2023-05-29T21:26:55;99266.21;;;12.78;51.79
75549;BME280;64133;56.002;37.208;2023-05-29T21:32:00;99265.66;;;12.75;51.98
75549;BME280;64133;56.002;37.208;2023-05-29T21:37:06;99262.27;;;12.69;52.41
75549;BME280;64133;56.002;37.208;2023-05-29T21:42:10;99261.98;;;12.62;52.84
75549;BME280;64133;56.002;37.208;2023-05-29T21:47:15;99260.50;;;12.50;53.39
75549;BME280;64133;56.002;37.208;2023-05-29T21:52:20;99254.02;;;12.39;53.90
75549;BME280;64133;56.002;37.208;2023-05-29T21:57:25;99253.32;;;12.27;54.36
75549;BME280;64133;56.002;37.208;2023-05-29T22:02:29;99255.70;;;12.30;54.62
75549;BME280;64133;56.002;37.208;2023-05-29T22:07:34;99255.47;;;12.27;54.96
75549;BME280;64133;56.002;37.208;2023-05-29T22:12:38;99260.83;;;12.31;55.02
75549;BME280;64133;56.002;37.208;2023-05-29T22:17:43;99254.36;;;12.40;54.91
75549;BME280;64133;56.002;37.208;2023-05-29T22:22:48;99246.81;;;12.41;55.11
75549;BME280;64133;56.002;37.208;2023-05-29T22:27:52;99245.87;;;12.36;55.30
75549;BME280;64133;56.002;37.208;2023-05-29T22:32:57;99249.99;;;12.35;55.37
75549;BME280;64133;56.002;37.208;2023-05-29T22:38:02;99252.91;;;12.31;55.64
75549;BME280;64133;56.002;37.208;2023-05-29T22:43:07;99248.11;;;12.31;55.98
75549;BME280;64133;56.002;37.208;2023-05-29T22:48:11;99247.16;;;12.32;56.19
75549;BME280;64133;56.002;37.208;2023-05-29T22:53:16;99246.94;;;12.29;56.44
75549;BME280;64133;56.002;37.208;2023-05-29T22:58:21;99251.66;;;12.36;56.33
75549;BME280;64133;56.002;37.208;2023-05-29T23:03:25;99248.13;;;12.41;56.18
75549;BME280;64133;56.002;37.208;2023-05-29T23:08:30;99247.35;;;12.54;55.95
75549;BME280;64133;56.002;37.208;2023-05-29T23:13:35;99250.73;;;12.60;55.69
75549;BME280;64133;56.002;37.208;2023-05-29T23:18:39;99255.59;;;12.65;55.72
75549;BME280;64133;56.002;37.208;2023-05-29T23:23:44;99254.50;;;12.67;55.67
75549;BME280;64133;56.002;37.208;2023-05-29T23:28:49;99249.39;;;12.70;55.64
75549;BME280;64133;56.002;37.208;2023-05-29T23:33:54;99249.05;;;12.69;55.66
75549;BME280;64133;56.002;37.208;2023-05-29T23:38:58;99247.02;;;12.67;55.75
75549;BME280;64133;56.002;37.208;2023-05-29T23:44:03;99250.09;;;12.62;55.73
75549;BME280;64133;56.002;37.208;2023-05-29T23:49:08;99247.35;;;12.54;56.01
75549;BME280;64133;56.002;37.208;2023-05-29T23:54:13;99250.54;;;12.48;56.09
75549;BME280;64133;56.002;37.208;2023-05-29T23:59:17;99256.16;;;12.49;56.13
